sensor_id;sensor_type;location;lat;lon;timestamp;temperature;humidity
1958;DHT22;979;51.076;13.748;2023-02-18T00:00:20;12.00;75.50
1958;DHT22;979;51.076;13.748;2023-02-18T00:02:50;12.00;74.90
1958;DHT22;979;51.076;13.748;2023-02-18T00:05:20;12.10;75.10
1958;DHT22;979;51.076;13.748;2023-02-18T00:07:48;12.00;74.80
1958;DHT22;979;51.076;13.748;2023-02-18T00:10:17;12.00;74.40
1958;DHT22;979;51.076;13.748;2023-02-18T00:12:45;12.00;74.10
1958;DHT22;979;51.076;13.748;2023-02-18T00:15:14;12.00;74.00
1958;DHT22;979;51.076;13.748;2023-02-18T00:17:45;12.10;73.90
1958;DHT22;979;51.076;13.748;2023-02-18T00:20:19;12.10;73.90
1958;DHT22;979;51.076;13.748;2023-02-18T00:22:47;12.10;73.80
1958;DHT22;979;51.076;13.748;2023-02-18T00:25:16;12.00;73.40
1958;DHT22;979;51.076;13.748;2023-02-18T00:27:44;12.00;73.20
1958;DHT22;979;51.076;13.748;2023-02-18T00:30:13;11.90;73.00
1958;DHT22;979;51.076;13.748;2023-02-18T00:32:41;11.90;73.00
1958;DHT22;979;51.076;13.748;2023-02-18T00:35:09;11.90;73.00
1958;DHT22;979;51.076;13.748;2023-02-18T00:37:39;11.80;72.90
1958;DHT22;979;51.076;13.748;2023-02-18T00:40:10;11.80;72.80
1958;DHT22;979;51.076;13.748;2023-02-18T00:42:40;11.80;72.70
1958;DHT22;979;51.076;13.748;2023-02-18T00:45:11;11.80;72.50
1958;DHT22;979;51.076;13.748;2023-02-18T00:47:39;11.80;72.40
1958;DHT22;979;51.076;13.748;2023-02-18T00:50:09;11.90;72.40
1958;DHT22;979;51.076;13.748;2023-02-18T00:52:52;11.80;72.40
1958;DHT22;979;51.076;13.748;2023-02-18T00:55:25;11.90;72.20
1958;DHT22;979;51.076;13.748;2023-02-18T00:58:34;11.90;72.50
1958;DHT22;979;51.076;13.748;2023-02-18T01:01:13;11.90;72.10
1958;DHT22;979;51.076;13.748;2023-02-18T01:03:51;11.90;71.90
1958;DHT22;979;51.076;13.748;2023-02-18T01:06:57;11.90;71.80
1958;DHT22;979;51.076;13.748;2023-02-18T01:10:17;11.80;71.80
1958;DHT22;979;51.076;13.748;2023-02-18T01:13:18;11.90;72.00
1958;DHT22;979;51.076;13.748;2023-02-18T01:16:09;11.70;71.20
1958;DHT22;979;51.076;13.748;2023-02-18T01:18:54;11.80;71.30
1958;DHT22;979;51.076;13.748;2023-02-18T01:21:32;11.90;71.20
1958;DHT22;979;51.076;13.748;2023-02-18T01:24:18;11.60;71.20
1958;DHT22;979;51.076;13.748;2023-02-18T01:27:26;11.80;71.00
1958;DHT22;979;51.076;13.748;2023-02-18T01:30:16;11.90;70.60
1958;DHT22;979;51.076;13.748;2023-02-18T01:32:56;11.70;70.30
1958;DHT22;979;51.076;13.748;2023-02-18T01:35:51;11.70;70.30
1958;DHT22;979;51.076;13.748;2023-02-18T01:38:57;11.60;70.00
1958;DHT22;979;51.076;13.748;2023-02-18T01:46:15;11.30;69.40
1958;DHT22;979;51.076;13.748;2023-02-18T01:49:15;11.20;69.40
1958;DHT22;979;51.076;13.748;2023-02-18T01:51:56;11.30;69.90
1958;DHT22;979;51.076;13.748;2023-02-18T01:54:46;11.30;69.60
1958;DHT22;979;51.076;13.748;2023-02-18T01:57:32;11.30;69.80
1958;DHT22;979;51.076;13.748;2023-02-18T02:00:36;11.00;69.30
1958;DHT22;979;51.076;13.748;2023-02-18T02:07:04;11.20;69.80
1958;DHT22;979;51.076;13.748;2023-02-18T02:09:57;11.20;70.00
1958;DHT22;979;51.076;13.748;2023-02-18T02:12:44;11.20;70.30
1958;DHT22;979;51.076;13.748;2023-02-18T02:15:25;11.10;69.60
1958;DHT22;979;51.076;13.748;2023-02-18T02:18:15;11.10;69.80
1958;DHT22;979;51.076;13.748;2023-02-18T02:21:19;11.10;70.00
1958;DHT22;979;51.076;13.748;2023-02-18T02:28:38;11.10;70.30
1958;DHT22;979;51.076;13.748;2023-02-18T02:32:01;10.90;70.50
1958;DHT22;979;51.076;13.748;2023-02-18T02:35:10;11.10;70.60
1958;DHT22;979;51.076;13.748;2023-02-18T02:37:55;11.00;70.90
1958;DHT22;979;51.076;13.748;2023-02-18T02:41:08;11.00;70.80
1958;DHT22;979;51.076;13.748;2023-02-18T02:44:07;10.80;70.50
1958;DHT22;979;51.076;13.748;2023-02-18T02:47:04;11.00;70.80
1958;DHT22;979;51.076;13.748;2023-02-18T02:50:04;11.00;71.10
1958;DHT22;979;51.076;13.748;2023-02-18T02:53:02;11.10;71.00
1958;DHT22;979;51.076;13.748;2023-02-18T02:56:05;11.10;70.70
1958;DHT22;979;51.076;13.748;2023-02-18T02:59:03;11.20;70.90
1958;DHT22;979;51.076;13.748;2023-02-18T03:01:54;11.10;70.80
1958;DHT22;979;51.076;13.748;2023-02-18T03:04:59;11.20;70.70
1958;DHT22;979;51.076;13.748;2023-02-18T03:08:28;11.20;70.60
1958;DHT22;979;51.076;13.748;2023-02-18T03:11:07;11.20;70.50
1958;DHT22;979;51.076;13.748;2023-02-18T03:14:22;11.30;70.80
1958;DHT22;979;51.076;13.748;2023-02-18T03:17:20;11.10;70.00
1958;DHT22;979;51.076;13.748;2023-02-18T03:20:08;11.30;70.20
1958;DHT22;979;51.076;13.748;2023-02-18T03:23:05;11.30;69.90
1958;DHT22;979;51.076;13.748;2023-02-18T03:29:26;11.60;69.70
1958;DHT22;979;51.076;13.748;2023-02-18T03:32:32;11.30;69.50
1958;DHT22;979;51.076;13.748;2023-02-18T03:35:22;11.20;69.00
1958;DHT22;979;51.076;13.748;2023-02-18T03:38:22;11.40;68.90
1958;DHT22;979;51.076;13.748;2023-02-18T03:44:19;11.40;68.60
1958;DHT22;979;51.076;13.748;2023-02-18T03:47:00;11.40;68.40
1958;DHT22;979;51.076;13.748;2023-02-18T03:49:53;11.30;68.80
1958;DHT22;979;51.076;13.748;2023-02-18T03:52:56;11.30;68.30
1958;DHT22;979;51.076;13.748;2023-02-18T03:55:39;11.30;68.50
1958;DHT22;979;51.076;13.748;2023-02-18T04:01:50;11.30;68.10
1958;DHT22;979;51.076;13.748;2023-02-18T04:04:42;11.20;67.90
1958;DHT22;979;51.076;13.748;2023-02-18T04:07:57;11.30;68.10
1958;DHT22;979;51.076;13.748;2023-02-18T04:10:45;11.10;68.10
1958;DHT22;979;51.076;13.748;2023-02-18T04:13:35;11.30;68.30
1958;DHT22;979;51.076;13.748;2023-02-18T04:16:22;11.30;68.10
1958;DHT22;979;51.076;13.748;2023-02-18T04:19:22;11.30;68.40
1958;DHT22;979;51.076;13.748;2023-02-18T04:22:06;11.30;68.50
1958;DHT22;979;51.076;13.748;2023-02-18T04:24:54;11.30;68.40
1958;DHT22;979;51.076;13.748;2023-02-18T04:28:13;11.30;68.50
1958;DHT22;979;51.076;13.748;2023-02-18T04:31:21;11.30;68.10
1958;DHT22;979;51.076;13.748;2023-02-18T04:34:04;11.30;68.70
1958;DHT22;979;51.076;13.748;2023-02-18T04:36:49;11.30;68.70
1958;DHT22;979;51.076;13.748;2023-02-18T04:39:18;11.30;68.20
1958;DHT22;979;51.076;13.748;2023-02-18T04:41:54;11.30;68.40
1958;DHT22;979;51.076;13.748;2023-02-18T04:44:49;11.50;68.60
1958;DHT22;979;51.076;13.748;2023-02-18T04:47:26;11.20;68.60
1958;DHT22;979;51.076;13.748;2023-02-18T04:50:10;11.30;68.80
1958;DHT22;979;51.076;13.748;2023-02-18T04:52:59;11.40;68.80
1958;DHT22;979;51.076;13.748;2023-02-18T04:55:27;11.40;68.80
1958;DHT22;979;51.076;13.748;2023-02-18T04:58:40;11.40;68.90
1958;DHT22;979;51.076;13.748;2023-02-18T05:01:36;11.40;68.90
1958;DHT22;979;51.076;13.748;2023-02-18T05:04:28;11.30;69.40
1958;DHT22;979;51.076;13.748;2023-02-18T05:07:28;11.30;68.70
1958;DHT22;979;51.076;13.748;2023-02-18T05:10:28;11.50;69.10
1958;DHT22;979;51.076;13.748;2023-02-18T05:13:18;11.40;69.20
1958;DHT22;979;51.076;13.748;2023-02-18T05:16:37;11.30;69.20
1958;DHT22;979;51.076;13.748;2023-02-18T05:19:27;11.40;69.60
1958;DHT22;979;51.076;13.748;2023-02-18T05:22:28;11.30;69.60
1958;DHT22;979;51.076;13.748;2023-02-18T05:25:43;11.40;69.40
1958;DHT22;979;51.076;13.748;2023-02-18T05:28:33;11.30;69.60
1958;DHT22;979;51.076;13.748;2023-02-18T05:31:30;11.20;69.60
1958;DHT22;979;51.076;13.748;2023-02-18T05:34:25;11.50;69.60
1958;DHT22;979;51.076;13.748;2023-02-18T05:37:11;11.40;70.00
1958;DHT22;979;51.076;13.748;2023-02-18T05:40:04;11.40;69.80
1958;DHT22;979;51.076;13.748;2023-02-18T05:43:13;11.40;69.50
1958;DHT22;979;51.076;13.748;2023-02-18T05:46:23;11.20;69.70
1958;DHT22;979;51.076;13.748;2023-02-18T05:49:28;11.40;69.90
1958;DHT22;979;51.076;13.748;2023-02-18T05:52:15;11.30;69.60
1958;DHT22;979;51.076;13.748;2023-02-18T05:55:10;11.40;70.00
1958;DHT22;979;51.076;13.748;2023-02-18T05:57:51;11.40;69.60
1958;DHT22;979;51.076;13.748;2023-02-18T06:00:50;11.40;70.00
1958;DHT22;979;51.076;13.748;2023-02-18T06:03:40;11.20;69.50
1958;DHT22;979;51.076;13.748;2023-02-18T06:06:31;11.40;70.30
1958;DHT22;979;51.076;13.748;2023-02-18T06:09:18;11.40;70.10
1958;DHT22;979;51.076;13.748;2023-02-18T06:12:01;11.40;70.60
1958;DHT22;979;51.076;13.748;2023-02-18T06:14:29;11.30;70.50
1958;DHT22;979;51.076;13.748;2023-02-18T06:20:11;11.20;70.80
1958;DHT22;979;51.076;13.748;2023-02-18T06:23:00;11.30;71.30
1958;DHT22;979;51.076;13.748;2023-02-18T06:26:02;11.20;71.40
1958;DHT22;979;51.076;13.748;2023-02-18T06:28:55;11.20;71.70
1958;DHT22;979;51.076;13.748;2023-02-18T06:31:53;11.20;71.50
1958;DHT22;979;51.076;13.748;2023-02-18T06:34:54;11.20;71.90
1958;DHT22;979;51.076;13.748;2023-02-18T06:37:54;11.20;72.30
1958;DHT22;979;51.076;13.748;2023-02-18T06:41:06;11.20;72.60
1958;DHT22;979;51.076;13.748;2023-02-18T06:43:50;11.00;72.30
1958;DHT22;979;51.076;13.748;2023-02-18T06:46:38;11.20;72.50
1958;DHT22;979;51.076;13.748;2023-02-18T06:49:35;11.20;73.10
1958;DHT22;979;51.076;13.748;2023-02-18T06:52:29;11.20;73.20
1958;DHT22;979;51.076;13.748;2023-02-18T06:58:25;11.30;73.40
1958;DHT22;979;51.076;13.748;2023-02-18T07:01:28;11.60;74.00
1958;DHT22;979;51.076;13.748;2023-02-18T07:04:33;11.40;73.90
1958;DHT22;979;51.076;13.748;2023-02-18T07:07:35;11.30;73.80
1958;DHT22;979;51.076;13.748;2023-02-18T07:10:33;11.40;74.10
1958;DHT22;979;51.076;13.748;2023-02-18T07:13:42;11.30;74.30
1958;DHT22;979;51.076;13.748;2023-02-18T07:16:35;11.30;74.50
1958;DHT22;979;51.076;13.748;2023-02-18T07:19:25;11.30;74.70
1958;DHT22;979;51.076;13.748;2023-02-18T07:22:00;11.30;75.10
1958;DHT22;979;51.076;13.748;2023-02-18T07:24:59;11.30;75.30
1958;DHT22;979;51.076;13.748;2023-02-18T07:27:47;11.30;75.70
1958;DHT22;979;51.076;13.748;2023-02-18T07:30:46;11.30;75.70
1958;DHT22;979;51.076;13.748;2023-02-18T07:33:33;11.40;75.90
1958;DHT22;979;51.076;13.748;2023-02-18T07:36:09;11.40;75.70
1958;DHT22;979;51.076;13.748;2023-02-18T07:39:00;11.50;76.00
1958;DHT22;979;51.076;13.748;2023-02-18T07:42:06;11.50;76.30
1958;DHT22;979;51.076;13.748;2023-02-18T07:45:03;11.60;76.20
1958;DHT22;979;51.076;13.748;2023-02-18T07:47:46;11.60;76.50
1958;DHT22;979;51.076;13.748;2023-02-18T07:50:31;11.70;76.90
1958;DHT22;979;51.076;13.748;2023-02-18T07:53:27;11.70;76.70
1958;DHT22;979;51.076;13.748;2023-02-18T07:56:22;11.60;76.70
1958;DHT22;979;51.076;13.748;2023-02-18T07:59:30;11.60;76.70
1958;DHT22;979;51.076;13.748;2023-02-18T08:02:41;11.60;76.60
1958;DHT22;979;51.076;13.748;2023-02-18T08:05:23;11.50;77.10
1958;DHT22;979;51.076;13.748;2023-02-18T08:08:10;11.60;77.50
1958;DHT22;979;51.076;13.748;2023-02-18T08:10:53;11.50;77.10
1958;DHT22;979;51.076;13.748;2023-02-18T08:16:52;11.60;77.20
1958;DHT22;979;51.076;13.748;2023-02-18T08:19:24;11.70;77.50
1958;DHT22;979;51.076;13.748;2023-02-18T08:21:52;11.70;77.50
1958;DHT22;979;51.076;13.748;2023-02-18T08:24:21;11.80;77.60
1958;DHT22;979;51.076;13.748;2023-02-18T08:27:40;11.80;78.00
1958;DHT22;979;51.076;13.748;2023-02-18T08:31:01;11.80;77.50
1958;DHT22;979;51.076;13.748;2023-02-18T08:38:18;11.80;77.70
1958;DHT22;979;51.076;13.748;2023-02-18T08:52:26;12.00;77.80
1958;DHT22;979;51.076;13.748;2023-02-18T08:55:32;12.00;77.90
1958;DHT22;979;51.076;13.748;2023-02-18T08:58:35;12.00;78.00
1958;DHT22;979;51.076;13.748;2023-02-18T09:01:11;12.00;77.90
1958;DHT22;979;51.076;13.748;2023-02-18T09:03:40;12.10;78.30
1958;DHT22;979;51.076;13.748;2023-02-18T09:06:08;12.10;78.50
1958;DHT22;979;51.076;13.748;2023-02-18T09:09:05;12.00;78.30
1958;DHT22;979;51.076;13.748;2023-02-18T09:11:45;12.00;78.20
1958;DHT22;979;51.076;13.748;2023-02-18T09:14:14;12.00;78.40
1958;DHT22;979;51.076;13.748;2023-02-18T09:16:58;11.90;78.50
1958;DHT22;979;51.076;13.748;2023-02-18T09:25:40;12.00;78.50
1958;DHT22;979;51.076;13.748;2023-02-18T09:28:37;12.00;78.80
1958;DHT22;979;51.076;13.748;2023-02-18T09:36:05;11.90;78.60
1958;DHT22;979;51.076;13.748;2023-02-18T09:39:08;11.80;78.70
1958;DHT22;979;51.076;13.748;2023-02-18T09:42:26;11.90;79.30
1958;DHT22;979;51.076;13.748;2023-02-18T09:45:15;12.00;79.10
1958;DHT22;979;51.076;13.748;2023-02-18T09:48:26;12.00;79.60
1958;DHT22;979;51.076;13.748;2023-02-18T09:51:12;12.10;79.40
1958;DHT22;979;51.076;13.748;2023-02-18T09:53:45;12.20;79.60
1958;DHT22;979;51.076;13.748;2023-02-18T09:56:28;12.30;79.80
1958;DHT22;979;51.076;13.748;2023-02-18T09:59:13;12.40;79.70
1958;DHT22;979;51.076;13.748;2023-02-18T10:01:48;12.50;79.80
1958;DHT22;979;51.076;13.748;2023-02-18T10:04:30;12.60;79.80
1958;DHT22;979;51.076;13.748;2023-02-18T10:07:37;12.70;79.60
1958;DHT22;979;51.076;13.748;2023-02-18T10:10:46;12.80;79.60
1958;DHT22;979;51.076;13.748;2023-02-18T10:13:33;12.90;79.60
1958;DHT22;979;51.076;13.748;2023-02-18T10:16:29;13.20;79.70
1958;DHT22;979;51.076;13.748;2023-02-18T10:19:28;13.20;79.80
1958;DHT22;979;51.076;13.748;2023-02-18T10:22:14;13.10;79.50
1958;DHT22;979;51.076;13.748;2023-02-18T10:25:37;13.20;80.10
1958;DHT22;979;51.076;13.748;2023-02-18T10:31:30;13.10;80.30
1958;DHT22;979;51.076;13.748;2023-02-18T10:34:39;13.10;80.80
1958;DHT22;979;51.076;13.748;2023-02-18T10:37:47;13.20;81.00
1958;DHT22;979;51.076;13.748;2023-02-18T10:50:36;13.40;81.30
1958;DHT22;979;51.076;13.748;2023-02-18T10:57:14;13.50;81.40
1958;DHT22;979;51.076;13.748;2023-02-18T11:03:40;13.60;81.50
1958;DHT22;979;51.076;13.748;2023-02-18T11:06:24;13.60;81.50
1958;DHT22;979;51.076;13.748;2023-02-18T11:12:56;13.80;81.70
1958;DHT22;979;51.076;13.748;2023-02-18T11:18:47;13.90;81.70
1958;DHT22;979;51.076;13.748;2023-02-18T11:26:27;14.20;81.30
1958;DHT22;979;51.076;13.748;2023-02-18T11:29:09;14.20;81.00
1958;DHT22;979;51.076;13.748;2023-02-18T11:35:52;14.10;80.30
1958;DHT22;979;51.076;13.748;2023-02-18T11:38:57;14.50;80.40
1958;DHT22;979;51.076;13.748;2023-02-18T12:01:36;14.60;78.10
1958;DHT22;979;51.076;13.748;2023-02-18T12:12:13;14.80;77.60
1958;DHT22;979;51.076;13.748;2023-02-18T12:15:22;14.80;77.70
1958;DHT22;979;51.076;13.748;2023-02-18T12:22:14;14.90;78.10
1958;DHT22;979;51.076;13.748;2023-02-18T12:44:07;13.70;79.00
1958;DHT22;979;51.076;13.748;2023-02-18T12:47:17;13.60;78.70
1958;DHT22;979;51.076;13.748;2023-02-18T12:50:48;13.80;78.90
1958;DHT22;979;51.076;13.748;2023-02-18T13:01:34;13.30;79.70
1958;DHT22;979;51.076;13.748;2023-02-18T13:04:25;13.50;80.90
1958;DHT22;979;51.076;13.748;2023-02-18T13:13:12;14.40;79.00
1958;DHT22;979;51.076;13.748;2023-02-18T13:16:08;14.20;78.60
1958;DHT22;979;51.076;13.748;2023-02-18T13:19:29;14.10;78.30
1958;DHT22;979;51.076;13.748;2023-02-18T13:22:05;14.00;78.00
1958;DHT22;979;51.076;13.748;2023-02-18T13:24:44;13.90;77.70
1958;DHT22;979;51.076;13.748;2023-02-18T13:28:00;13.90;78.00
1958;DHT22;979;51.076;13.748;2023-02-18T13:31:08;14.30;77.90
1958;DHT22;979;51.076;13.748;2023-02-18T13:34:04;14.30;76.70
1958;DHT22;979;51.076;13.748;2023-02-18T13:36:53;14.30;75.90
1958;DHT22;979;51.076;13.748;2023-02-18T13:39:32;14.20;75.00
1958;DHT22;979;51.076;13.748;2023-02-18T13:42:32;14.10;75.40
1958;DHT22;979;51.076;13.748;2023-02-18T13:45:25;13.70;75.20
1958;DHT22;979;51.076;13.748;2023-02-18T13:47:54;13.40;75.70
1958;DHT22;979;51.076;13.748;2023-02-18T13:50:39;13.10;76.20
1958;DHT22;979;51.076;13.748;2023-02-18T13:53:30;13.00;76.50
1958;DHT22;979;51.076;13.748;2023-02-18T13:56:04;12.80;76.90
1958;DHT22;979;51.076;13.748;2023-02-18T13:58:39;12.80;77.30
1958;DHT22;979;51.076;13.748;2023-02-18T14:01:36;12.80;77.30
1958;DHT22;979;51.076;13.748;2023-02-18T14:04:47;12.80;77.30
1958;DHT22;979;51.076;13.748;2023-02-18T14:07:26;12.80;77.10
1958;DHT22;979;51.076;13.748;2023-02-18T14:10:44;12.80;77.00
1958;DHT22;979;51.076;13.748;2023-02-18T14:13:41;12.90;76.90
1958;DHT22;979;51.076;13.748;2023-02-18T14:16:18;13.00;76.90
1958;DHT22;979;51.076;13.748;2023-02-18T14:18:58;13.00;76.60
1958;DHT22;979;51.076;13.748;2023-02-18T14:21:43;13.00;76.20
1958;DHT22;979;51.076;13.748;2023-02-18T14:24:46;13.10;76.50
1958;DHT22;979;51.076;13.748;2023-02-18T14:27:32;13.10;75.80
1958;DHT22;979;51.076;13.748;2023-02-18T14:30:23;13.10;76.80
1958;DHT22;979;51.076;13.748;2023-02-18T14:33:01;13.40;75.70
1958;DHT22;979;51.076;13.748;2023-02-18T14:39:25;13.20;75.10
1958;DHT22;979;51.076;13.748;2023-02-18T14:42:09;13.20;74.80
1958;DHT22;979;51.076;13.748;2023-02-18T14:45:14;13.20;74.50
1958;DHT22;979;51.076;13.748;2023-02-18T14:48:09;13.20;74.30
1958;DHT22;979;51.076;13.748;2023-02-18T14:50:42;13.20;74.20
1958;DHT22;979;51.076;13.748;2023-02-18T14:53:13;13.20;74.20
1958;DHT22;979;51.076;13.748;2023-02-18T14:55:46;13.20;74.10
1958;DHT22;979;51.076;13.748;2023-02-18T14:58:27;13.20;74.10
1958;DHT22;979;51.076;13.748;2023-02-18T15:01:05;13.20;73.90
1958;DHT22;979;51.076;13.748;2023-02-18T15:03:33;13.10;74.00
1958;DHT22;979;51.076;13.748;2023-02-18T15:06:32;13.00;74.30
1958;DHT22;979;51.076;13.748;2023-02-18T15:09:48;12.70;74.50
1958;DHT22;979;51.076;13.748;2023-02-18T15:12:23;12.40;75.40
1958;DHT22;979;51.076;13.748;2023-02-18T15:15:04;12.20;76.10
1958;DHT22;979;51.076;13.748;2023-02-18T15:18:02;12.10;77.00
1958;DHT22;979;51.076;13.748;2023-02-18T15:20:46;11.70;77.00
1958;DHT22;979;51.076;13.748;2023-02-18T15:23:35;11.80;77.90
1958;DHT22;979;51.076;13.748;2023-02-18T15:26:04;11.70;78.00
1958;DHT22;979;51.076;13.748;2023-02-18T15:28:40;11.60;78.40
1958;DHT22;979;51.076;13.748;2023-02-18T15:31:13;11.60;78.70
1958;DHT22;979;51.076;13.748;2023-02-18T15:33:49;11.60;79.00
1958;DHT22;979;51.076;13.748;2023-02-18T15:36:18;11.70;79.50
1958;DHT22;979;51.076;13.748;2023-02-18T15:42:06;11.90;79.20
1958;DHT22;979;51.076;13.748;2023-02-18T15:44:46;11.90;78.80
1958;DHT22;979;51.076;13.748;2023-02-18T15:47:22;12.30;78.80
1958;DHT22;979;51.076;13.748;2023-02-18T15:54:00;12.60;77.80
1958;DHT22;979;51.076;13.748;2023-02-18T15:57:54;12.60;77.50
1958;DHT22;979;51.076;13.748;2023-02-18T16:00:38;13.00;77.50
1958;DHT22;979;51.076;13.748;2023-02-18T16:03:43;12.80;76.90
1958;DHT22;979;51.076;13.748;2023-02-18T16:06:34;12.80;76.60
1958;DHT22;979;51.076;13.748;2023-02-18T16:14:55;13.00;76.20
1958;DHT22;979;51.076;13.748;2023-02-18T16:18:17;13.10;76.00
1958;DHT22;979;51.076;13.748;2023-02-18T16:21:05;12.90;75.70
1958;DHT22;979;51.076;13.748;2023-02-18T16:24:28;13.20;75.70
1958;DHT22;979;51.076;13.748;2023-02-18T16:54:25;13.00;74.10
1958;DHT22;979;51.076;13.748;2023-02-18T16:56:55;13.00;74.10
1958;DHT22;979;51.076;13.748;2023-02-18T17:03:10;13.10;74.20
1958;DHT22;979;51.076;13.748;2023-02-18T17:06:05;13.10;73.80
1958;DHT22;979;51.076;13.748;2023-02-18T17:08:46;13.00;73.80
1958;DHT22;979;51.076;13.748;2023-02-18T17:12:47;13.20;74.00
1958;DHT22;979;51.076;13.748;2023-02-18T17:28:35;12.80;74.00
1958;DHT22;979;51.076;13.748;2023-02-18T17:49:11;12.10;76.30
1958;DHT22;979;51.076;13.748;2023-02-18T17:51:46;12.00;77.20
1958;DHT22;979;51.076;13.748;2023-02-18T17:58:58;12.10;77.40
1958;DHT22;979;51.076;13.748;2023-02-18T20:08:59;12.30;75.70
1958;DHT22;979;51.076;13.748;2023-02-18T20:19:53;12.40;75.90
1958;DHT22;979;51.076;13.748;2023-02-18T20:30:46;12.20;76.10
1958;DHT22;979;51.076;13.748;2023-02-18T20:33:25;12.20;76.40
1958;DHT22;979;51.076;13.748;2023-02-18T20:35:54;12.20;76.60
1958;DHT22;979;51.076;13.748;2023-02-18T20:38:23;12.20;76.80
1958;DHT22;979;51.076;13.748;2023-02-18T20:40:51;12.20;76.90
1958;DHT22;979;51.076;13.748;2023-02-18T20:43:25;12.30;76.80
1958;DHT22;979;51.076;13.748;2023-02-18T20:46:02;12.40;76.80
1958;DHT22;979;51.076;13.748;2023-02-18T20:48:31;12.40;76.70
1958;DHT22;979;51.076;13.748;2023-02-18T20:51:02;12.40;76.70
1958;DHT22;979;51.076;13.748;2023-02-18T20:53:31;12.40;76.40
1958;DHT22;979;51.076;13.748;2023-02-18T20:56:12;12.40;76.40
1958;DHT22;979;51.076;13.748;2023-02-18T20:58:45;12.50;76.70
1958;DHT22;979;51.076;13.748;2023-02-18T21:01:17;12.50;76.50
1958;DHT22;979;51.076;13.748;2023-02-18T21:03:46;12.50;76.50
1958;DHT22;979;51.076;13.748;2023-02-18T21:06:16;12.40;76.20
1958;DHT22;979;51.076;13.748;2023-02-18T21:08:49;12.40;76.20
1958;DHT22;979;51.076;13.748;2023-02-18T21:11:21;12.40;76.10
1958;DHT22;979;51.076;13.748;2023-02-18T21:13:52;12.30;76.10
1958;DHT22;979;51.076;13.748;2023-02-18T21:16:24;12.30;76.20
1958;DHT22;979;51.076;13.748;2023-02-18T21:18:53;12.30;76.30
1958;DHT22;979;51.076;13.748;2023-02-18T21:21:26;12.30;76.20
1958;DHT22;979;51.076;13.748;2023-02-18T21:23:55;12.30;76.30
1958;DHT22;979;51.076;13.748;2023-02-18T21:26:26;12.40;76.50
1958;DHT22;979;51.076;13.748;2023-02-18T21:28:58;12.40;76.10
1958;DHT22;979;51.076;13.748;2023-02-18T21:31:40;12.50;76.50
1958;DHT22;979;51.076;13.748;2023-02-18T21:34:25;12.50;76.90
1958;DHT22;979;51.076;13.748;2023-02-18T21:36:56;12.30;75.80
1958;DHT22;979;51.076;13.748;2023-02-18T21:39:24;12.50;76.20
1958;DHT22;979;51.076;13.748;2023-02-18T21:41:53;12.50;76.40
1958;DHT22;979;51.076;13.748;2023-02-18T21:44:22;12.50;76.40
1958;DHT22;979;51.076;13.748;2023-02-18T21:47:17;12.60;76.50
1958;DHT22;979;51.076;13.748;2023-02-18T21:49:46;12.50;76.40
1958;DHT22;979;51.076;13.748;2023-02-18T21:52:14;12.50;76.40
1958;DHT22;979;51.076;13.748;2023-02-18T21:54:46;12.60;76.50
1958;DHT22;979;51.076;13.748;2023-02-18T21:57:16;12.50;76.40
1958;DHT22;979;51.076;13.748;2023-02-18T21:59:46;12.50;76.30
1958;DHT22;979;51.076;13.748;2023-02-18T22:02:19;12.50;76.50
1958;DHT22;979;51.076;13.748;2023-02-18T22:04:49;12.50;76.50
1958;DHT22;979;51.076;13.748;2023-02-18T22:07:18;12.40;76.50
1958;DHT22;979;51.076;13.748;2023-02-18T22:09:52;12.40;76.70
1958;DHT22;979;51.076;13.748;2023-02-18T22:12:22;12.40;76.90
1958;DHT22;979;51.076;13.748;2023-02-18T22:14:51;12.40;77.20
1958;DHT22;979;51.076;13.748;2023-02-18T22:17:21;12.40;77.10
1958;DHT22;979;51.076;13.748;2023-02-18T22:19:49;12.40;77.10
1958;DHT22;979;51.076;13.748;2023-02-18T22:22:20;12.40;77.20
1958;DHT22;979;51.076;13.748;2023-02-18T22:24:51;12.40;77.00
1958;DHT22;979;51.076;13.748;2023-02-18T22:27:22;12.50;77.20
1958;DHT22;979;51.076;13.748;2023-02-18T22:29:52;12.50;77.10
1958;DHT22;979;51.076;13.748;2023-02-18T22:35:53;12.60;77.20
1958;DHT22;979;51.076;13.748;2023-02-18T22:38:22;12.20;76.50
1958;DHT22;979;51.076;13.748;2023-02-18T22:40:56;12.40;76.70
1958;DHT22;979;51.076;13.748;2023-02-18T22:43:34;12.50;76.50
1958;DHT22;979;51.076;13.748;2023-02-18T22:46:02;12.50;76.40
1958;DHT22;979;51.076;13.748;2023-02-18T22:48:33;12.50;76.40
1958;DHT22;979;51.076;13.748;2023-02-18T22:51:08;12.50;76.20
1958;DHT22;979;51.076;13.748;2023-02-18T22:53:38;12.50;76.30
1958;DHT22;979;51.076;13.748;2023-02-18T22:56:11;12.50;76.40
1958;DHT22;979;51.076;13.748;2023-02-18T22:58:41;12.40;76.30
1958;DHT22;979;51.076;13.748;2023-02-18T23:01:18;12.50;76.80
1958;DHT22;979;51.076;13.748;2023-02-18T23:03:47;12.20;76.80
1958;DHT22;979;51.076;13.748;2023-02-18T23:06:18;12.10;77.30
1958;DHT22;979;51.076;13.748;2023-02-18T23:08:48;12.00;77.50
1958;DHT22;979;51.076;13.748;2023-02-18T23:11:18;11.90;77.80
1958;DHT22;979;51.076;13.748;2023-02-18T23:13:47;11.80;78.00
1958;DHT22;979;51.076;13.748;2023-02-18T23:16:36;11.80;78.20
1958;DHT22;979;51.076;13.748;2023-02-18T23:19:19;11.80;78.70
1958;DHT22;979;51.076;13.748;2023-02-18T23:21:49;11.80;78.60
1958;DHT22;979;51.076;13.748;2023-02-18T23:24:18;11.80;78.90
1958;DHT22;979;51.076;13.748;2023-02-18T23:26:47;11.80;79.00
1958;DHT22;979;51.076;13.748;2023-02-18T23:29:18;11.80;79.00
1958;DHT22;979;51.076;13.748;2023-02-18T23:31:46;11.80;79.20
1958;DHT22;979;51.076;13.748;2023-02-18T23:34:16;11.80;79.40
1958;DHT22;979;51.076;13.748;2023-02-18T23:36:44;11.80;79.30
1958;DHT22;979;51.076;13.748;2023-02-18T23:39:18;11.80;79.50
1958;DHT22;979;51.076;13.748;2023-02-18T23:41:50;11.80;79.50
1958;DHT22;979;51.076;13.748;2023-02-18T23:44:23;11.80;79.40
1958;DHT22;979;51.076;13.748;2023-02-18T23:46:57;11.80;79.40
1958;DHT22;979;51.076;13.748;2023-02-18T23:49:30;11.80;79.30
1958;DHT22;979;51.076;13.748;2023-02-18T23:52:26;11.80;79.40
1958;DHT22;979;51.076;13.748;2023-02-18T23:59:55;11.90;79.10
